sensor_id;sensor_type;location;lat;lon;timestamp;temperature;humidity
36416;DHT22;22447;44.530;18.620;2022-11-20T00:01:18;9.10;99.90
36416;DHT22;22447;44.530;18.620;2022-11-20T00:03:45;9.30;99.90
36416;DHT22;22447;44.530;18.620;2022-11-20T00:06:14;9.30;99.90
36416;DHT22;22447;44.530;18.620;2022-11-20T00:08:41;9.10;99.90
36416;DHT22;22447;44.530;18.620;2022-11-20T00:11:09;9.10;99.90
36416;DHT22;22447;44.530;18.620;2022-11-20T00:13:36;9.10;99.90
36416;DHT22;22447;44.530;18.620;2022-11-20T00:16:03;9.10;99.90
36416;DHT22;22447;44.530;18.620;2022-11-20T00:18:30;9.10;99.90
36416;DHT22;22447;44.530;18.620;2022-11-20T00:21:14;9.20;99.90
36416;DHT22;22447;44.530;18.620;2022-11-20T00:23:40;9.20;99.90
36416;DHT22;22447;44.530;18.620;2022-11-20T00:26:11;9.20;99.90
36416;DHT22;22447;44.530;18.620;2022-11-20T00:28:38;9.10;99.90
36416;DHT22;22447;44.530;18.620;2022-11-20T00:31:08;9.00;99.90
36416;DHT22;22447;44.530;18.620;2022-11-20T00:33:35;9.00;99.90
36416;DHT22;22447;44.530;18.620;2022-11-20T00:36:06;9.00;99.90
36416;DHT22;22447;44.530;18.620;2022-11-20T00:38:33;9.10;99.90
36416;DHT22;22447;44.530;18.620;2022-11-20T00:41:01;9.10;99.90
36416;DHT22;22447;44.530;18.620;2022-11-20T00:43:28;9.20;99.90
36416;DHT22;22447;44.530;18.620;2022-11-20T00:45:58;9.10;99.90
36416;DHT22;22447;44.530;18.620;2022-11-20T00:48:24;9.10;99.90
36416;DHT22;22447;44.530;18.620;2022-11-20T00:50:50;9.10;99.90
36416;DHT22;22447;44.530;18.620;2022-11-20T00:53:16;9.20;99.90
36416;DHT22;22447;44.530;18.620;2022-11-20T00:55:42;9.20;99.90
36416;DHT22;22447;44.530;18.620;2022-11-20T00:58:08;9.20;99.90
36416;DHT22;22447;44.530;18.620;2022-11-20T01:00:34;9.20;99.90
36416;DHT22;22447;44.530;18.620;2022-11-20T01:03:00;9.20;99.90
36416;DHT22;22447;44.530;18.620;2022-11-20T01:05:26;9.20;99.90
36416;DHT22;22447;44.530;18.620;2022-11-20T01:07:52;9.10;99.90
36416;DHT22;22447;44.530;18.620;2022-11-20T01:10:18;9.10;99.90
36416;DHT22;22447;44.530;18.620;2022-11-20T01:12:44;9.10;99.90
36416;DHT22;22447;44.530;18.620;2022-11-20T01:15:29;9.10;99.90
36416;DHT22;22447;44.530;18.620;2022-11-20T01:17:55;9.10;99.90
36416;DHT22;22447;44.530;18.620;2022-11-20T01:20:21;9.10;99.90
36416;DHT22;22447;44.530;18.620;2022-11-20T01:22:47;9.20;99.90
36416;DHT22;22447;44.530;18.620;2022-11-20T01:25:13;9.20;99.90
36416;DHT22;22447;44.530;18.620;2022-11-20T01:27:39;9.10;99.90
36416;DHT22;22447;44.530;18.620;2022-11-20T01:30:05;9.20;99.90
36416;DHT22;22447;44.530;18.620;2022-11-20T01:32:31;9.20;99.90
36416;DHT22;22447;44.530;18.620;2022-11-20T01:34:57;9.20;99.90
36416;DHT22;22447;44.530;18.620;2022-11-20T01:37:23;9.20;99.90
36416;DHT22;22447;44.530;18.620;2022-11-20T01:39:49;9.20;99.90
36416;DHT22;22447;44.530;18.620;2022-11-20T01:42:15;9.10;99.90
36416;DHT22;22447;44.530;18.620;2022-11-20T01:45:00;9.00;99.90
36416;DHT22;22447;44.530;18.620;2022-11-20T01:49:59;9.10;99.90
36416;DHT22;22447;44.530;18.620;2022-11-20T01:55:07;9.00;99.90
36416;DHT22;22447;44.530;18.620;2022-11-20T01:57:34;9.00;99.90
36416;DHT22;22447;44.530;18.620;2022-11-20T02:00:13;8.90;99.90
36416;DHT22;22447;44.530;18.620;2022-11-20T02:02:41;8.90;99.90
36416;DHT22;22447;44.530;18.620;2022-11-20T02:07:48;8.90;99.90
36416;DHT22;22447;44.530;18.620;2022-11-20T02:10:14;8.90;99.90
36416;DHT22;22447;44.530;18.620;2022-11-20T02:12:40;8.80;99.90
36416;DHT22;22447;44.530;18.620;2022-11-20T02:15:25;8.80;99.90
36416;DHT22;22447;44.530;18.620;2022-11-20T02:17:51;8.80;99.90
36416;DHT22;22447;44.530;18.620;2022-11-20T02:20:17;8.90;99.90
36416;DHT22;22447;44.530;18.620;2022-11-20T02:23:02;9.00;99.90
36416;DHT22;22447;44.530;18.620;2022-11-20T02:25:30;8.80;99.90
36416;DHT22;22447;44.530;18.620;2022-11-20T02:27:58;8.70;99.90
36416;DHT22;22447;44.530;18.620;2022-11-20T02:30:24;8.70;99.90
36416;DHT22;22447;44.530;18.620;2022-11-20T02:32:50;8.70;99.90
36416;DHT22;22447;44.530;18.620;2022-11-20T02:37:48;8.70;99.90
36416;DHT22;22447;44.530;18.620;2022-11-20T02:40:16;8.70;99.90
36416;DHT22;22447;44.530;18.620;2022-11-20T02:42:42;8.60;99.90
36416;DHT22;22447;44.530;18.620;2022-11-20T02:45:08;8.60;99.90
36416;DHT22;22447;44.530;18.620;2022-11-20T02:47:34;8.70;99.90
36416;DHT22;22447;44.530;18.620;2022-11-20T02:50:02;8.60;99.90
36416;DHT22;22447;44.530;18.620;2022-11-20T02:52:28;8.70;99.90
36416;DHT22;22447;44.530;18.620;2022-11-20T02:54:54;8.60;99.90
36416;DHT22;22447;44.530;18.620;2022-11-20T02:57:20;8.70;99.90
36416;DHT22;22447;44.530;18.620;2022-11-20T02:59:46;8.60;99.90
36416;DHT22;22447;44.530;18.620;2022-11-20T03:02:12;8.60;99.90
36416;DHT22;22447;44.530;18.620;2022-11-20T03:04:37;8.50;99.90
36416;DHT22;22447;44.530;18.620;2022-11-20T03:07:04;8.60;99.90
36416;DHT22;22447;44.530;18.620;2022-11-20T03:09:30;8.50;99.90
36416;DHT22;22447;44.530;18.620;2022-11-20T03:11:56;8.60;99.90
36416;DHT22;22447;44.530;18.620;2022-11-20T03:14:22;8.60;99.90
36416;DHT22;22447;44.530;18.620;2022-11-20T03:16:47;8.70;99.90
36416;DHT22;22447;44.530;18.620;2022-11-20T03:19:13;8.60;99.90
36416;DHT22;22447;44.530;18.620;2022-11-20T03:21:39;8.50;99.90
36416;DHT22;22447;44.530;18.620;2022-11-20T03:24:05;8.50;99.90
36416;DHT22;22447;44.530;18.620;2022-11-20T03:26:32;8.60;99.90
36416;DHT22;22447;44.530;18.620;2022-11-20T03:28:59;8.60;99.90
36416;DHT22;22447;44.530;18.620;2022-11-20T03:31:37;8.50;99.90
36416;DHT22;22447;44.530;18.620;2022-11-20T03:34:06;8.40;99.90
36416;DHT22;22447;44.530;18.620;2022-11-20T03:36:33;8.50;99.90
36416;DHT22;22447;44.530;18.620;2022-11-20T03:38:59;8.50;99.90
36416;DHT22;22447;44.530;18.620;2022-11-20T03:41:27;8.50;99.90
36416;DHT22;22447;44.530;18.620;2022-11-20T03:43:56;8.40;99.90
36416;DHT22;22447;44.530;18.620;2022-11-20T03:46:23;8.30;99.90
36416;DHT22;22447;44.530;18.620;2022-11-20T03:48:49;8.20;99.90
36416;DHT22;22447;44.530;18.620;2022-11-20T03:53:46;8.20;99.90
36416;DHT22;22447;44.530;18.620;2022-11-20T03:56:14;8.20;99.90
36416;DHT22;22447;44.530;18.620;2022-11-20T03:58:41;8.20;99.90
36416;DHT22;22447;44.530;18.620;2022-11-20T04:01:11;8.20;99.90
36416;DHT22;22447;44.530;18.620;2022-11-20T04:03:38;8.20;99.90
36416;DHT22;22447;44.530;18.620;2022-11-20T04:06:13;8.30;99.90
36416;DHT22;22447;44.530;18.620;2022-11-20T04:08:39;8.30;99.90
36416;DHT22;22447;44.530;18.620;2022-11-20T04:11:20;8.20;99.90
36416;DHT22;22447;44.530;18.620;2022-11-20T04:13:49;8.30;99.90
36416;DHT22;22447;44.530;18.620;2022-11-20T04:16:16;8.20;99.90
36416;DHT22;22447;44.530;18.620;2022-11-20T04:18:42;8.20;99.90
36416;DHT22;22447;44.530;18.620;2022-11-20T04:21:09;8.10;99.90
36416;DHT22;22447;44.530;18.620;2022-11-20T04:23:35;8.20;99.90
36416;DHT22;22447;44.530;18.620;2022-11-20T04:26:03;8.10;99.90
36416;DHT22;22447;44.530;18.620;2022-11-20T04:28:29;8.10;99.90
36416;DHT22;22447;44.530;18.620;2022-11-20T04:31:02;8.10;99.90
36416;DHT22;22447;44.530;18.620;2022-11-20T04:33:27;8.10;99.90
36416;DHT22;22447;44.530;18.620;2022-11-20T04:35:53;8.10;99.90
36416;DHT22;22447;44.530;18.620;2022-11-20T04:38:19;7.90;99.90
36416;DHT22;22447;44.530;18.620;2022-11-20T04:40:45;7.80;99.90
36416;DHT22;22447;44.530;18.620;2022-11-20T04:43:11;7.70;99.90
36416;DHT22;22447;44.530;18.620;2022-11-20T04:45:37;7.70;99.90
36416;DHT22;22447;44.530;18.620;2022-11-20T04:48:03;7.60;99.90
36416;DHT22;22447;44.530;18.620;2022-11-20T04:50:28;7.80;99.90
36416;DHT22;22447;44.530;18.620;2022-11-20T04:52:54;7.90;99.90
36416;DHT22;22447;44.530;18.620;2022-11-20T04:55:20;7.80;99.90
36416;DHT22;22447;44.530;18.620;2022-11-20T04:57:50;7.90;99.90
36416;DHT22;22447;44.530;18.620;2022-11-20T05:00:17;7.90;99.90
36416;DHT22;22447;44.530;18.620;2022-11-20T05:02:43;7.70;99.90
36416;DHT22;22447;44.530;18.620;2022-11-20T05:05:09;7.80;99.90
36416;DHT22;22447;44.530;18.620;2022-11-20T05:07:34;7.70;99.90
36416;DHT22;22447;44.530;18.620;2022-11-20T05:10:00;7.70;99.90
36416;DHT22;22447;44.530;18.620;2022-11-20T05:12:26;7.70;99.90
36416;DHT22;22447;44.530;18.620;2022-11-20T05:14:52;7.70;99.90
36416;DHT22;22447;44.530;18.620;2022-11-20T05:17:18;7.60;99.90
36416;DHT22;22447;44.530;18.620;2022-11-20T05:19:44;7.70;99.90
36416;DHT22;22447;44.530;18.620;2022-11-20T05:22:10;7.70;99.90
36416;DHT22;22447;44.530;18.620;2022-11-20T05:24:36;7.60;99.90
36416;DHT22;22447;44.530;18.620;2022-11-20T05:27:02;7.70;99.90
36416;DHT22;22447;44.530;18.620;2022-11-20T05:29:28;7.80;99.90
36416;DHT22;22447;44.530;18.620;2022-11-20T05:31:53;7.60;99.90
36416;DHT22;22447;44.530;18.620;2022-11-20T05:34:19;7.80;99.90
36416;DHT22;22447;44.530;18.620;2022-11-20T05:36:45;7.70;99.90
36416;DHT22;22447;44.530;18.620;2022-11-20T05:39:11;7.70;99.90
36416;DHT22;22447;44.530;18.620;2022-11-20T05:41:37;7.80;99.90
36416;DHT22;22447;44.530;18.620;2022-11-20T05:44:03;7.60;99.90
36416;DHT22;22447;44.530;18.620;2022-11-20T05:46:29;7.50;99.90
36416;DHT22;22447;44.530;18.620;2022-11-20T05:48:56;7.50;99.90
36416;DHT22;22447;44.530;18.620;2022-11-20T05:51:22;7.60;99.90
36416;DHT22;22447;44.530;18.620;2022-11-20T05:53:48;7.70;99.90
36416;DHT22;22447;44.530;18.620;2022-11-20T05:56:17;7.70;99.90
36416;DHT22;22447;44.530;18.620;2022-11-20T05:58:44;7.60;99.90
36416;DHT22;22447;44.530;18.620;2022-11-20T06:01:21;7.60;99.90
36416;DHT22;22447;44.530;18.620;2022-11-20T06:03:48;7.70;99.90
36416;DHT22;22447;44.530;18.620;2022-11-20T06:06:17;7.60;99.90
36416;DHT22;22447;44.530;18.620;2022-11-20T06:08:44;7.60;99.90
36416;DHT22;22447;44.530;18.620;2022-11-20T06:11:11;7.60;99.90
36416;DHT22;22447;44.530;18.620;2022-11-20T06:13:38;7.50;99.90
36416;DHT22;22447;44.530;18.620;2022-11-20T06:16:05;7.50;99.90
36416;DHT22;22447;44.530;18.620;2022-11-20T06:18:31;7.50;99.90
36416;DHT22;22447;44.530;18.620;2022-11-20T06:21:07;7.60;99.90
36416;DHT22;22447;44.530;18.620;2022-11-20T06:23:35;7.50;99.90
36416;DHT22;22447;44.530;18.620;2022-11-20T06:26:06;7.40;99.90
36416;DHT22;22447;44.530;18.620;2022-11-20T06:28:32;7.40;99.90
36416;DHT22;22447;44.530;18.620;2022-11-20T06:30:58;7.40;99.90
36416;DHT22;22447;44.530;18.620;2022-11-20T06:33:24;7.30;99.90
36416;DHT22;22447;44.530;18.620;2022-11-20T06:35:50;7.20;99.90
36416;DHT22;22447;44.530;18.620;2022-11-20T06:38:16;7.30;99.90
36416;DHT22;22447;44.530;18.620;2022-11-20T06:40:42;7.30;99.90
36416;DHT22;22447;44.530;18.620;2022-11-20T06:43:09;7.30;99.90
36416;DHT22;22447;44.530;18.620;2022-11-20T06:45:36;7.20;99.90
36416;DHT22;22447;44.530;18.620;2022-11-20T06:48:03;7.20;99.90
36416;DHT22;22447;44.530;18.620;2022-11-20T06:50:29;7.20;99.90
36416;DHT22;22447;44.530;18.620;2022-11-20T06:52:55;7.20;99.90
36416;DHT22;22447;44.530;18.620;2022-11-20T06:55:21;7.20;99.90
36416;DHT22;22447;44.530;18.620;2022-11-20T06:57:47;7.20;99.90
36416;DHT22;22447;44.530;18.620;2022-11-20T07:00:13;7.20;99.90
36416;DHT22;22447;44.530;18.620;2022-11-20T07:02:39;7.20;99.90
36416;DHT22;22447;44.530;18.620;2022-11-20T07:05:05;7.30;99.90
36416;DHT22;22447;44.530;18.620;2022-11-20T07:07:31;7.20;99.90
36416;DHT22;22447;44.530;18.620;2022-11-20T07:09:57;7.30;99.90
36416;DHT22;22447;44.530;18.620;2022-11-20T07:12:22;7.20;99.90
36416;DHT22;22447;44.530;18.620;2022-11-20T07:14:48;7.20;99.90
36416;DHT22;22447;44.530;18.620;2022-11-20T07:17:14;7.30;99.90
36416;DHT22;22447;44.530;18.620;2022-11-20T07:19:40;7.20;99.90
36416;DHT22;22447;44.530;18.620;2022-11-20T07:22:06;7.20;99.90
36416;DHT22;22447;44.530;18.620;2022-11-20T07:24:32;7.30;99.90
36416;DHT22;22447;44.530;18.620;2022-11-20T07:26:57;7.30;99.90
36416;DHT22;22447;44.530;18.620;2022-11-20T07:29:23;7.40;99.90
36416;DHT22;22447;44.530;18.620;2022-11-20T07:31:49;7.40;99.90
36416;DHT22;22447;44.530;18.620;2022-11-20T07:34:15;7.40;99.90
36416;DHT22;22447;44.530;18.620;2022-11-20T07:36:41;7.40;99.90
36416;DHT22;22447;44.530;18.620;2022-11-20T07:39:07;7.50;99.90
36416;DHT22;22447;44.530;18.620;2022-11-20T07:41:33;7.50;99.90
36416;DHT22;22447;44.530;18.620;2022-11-20T07:43:59;7.50;99.90
36416;DHT22;22447;44.530;18.620;2022-11-20T07:46:24;7.50;99.90
36416;DHT22;22447;44.530;18.620;2022-11-20T07:48:50;7.60;99.90
36416;DHT22;22447;44.530;18.620;2022-11-20T07:51:16;7.70;99.90
36416;DHT22;22447;44.530;18.620;2022-11-20T07:53:42;7.70;99.90
36416;DHT22;22447;44.530;18.620;2022-11-20T07:56:08;7.70;99.90
36416;DHT22;22447;44.530;18.620;2022-11-20T07:58:34;7.70;99.90
36416;DHT22;22447;44.530;18.620;2022-11-20T08:01:05;7.70;99.90
36416;DHT22;22447;44.530;18.620;2022-11-20T08:03:31;7.80;99.90
36416;DHT22;22447;44.530;18.620;2022-11-20T08:06:00;7.80;99.90
36416;DHT22;22447;44.530;18.620;2022-11-20T08:08:27;7.90;99.90
36416;DHT22;22447;44.530;18.620;2022-11-20T08:10:53;7.80;99.90
36416;DHT22;22447;44.530;18.620;2022-11-20T08:13:39;7.80;99.90
36416;DHT22;22447;44.530;18.620;2022-11-20T08:16:23;7.80;99.90
36416;DHT22;22447;44.530;18.620;2022-11-20T08:18:49;7.70;99.90
36416;DHT22;22447;44.530;18.620;2022-11-20T08:21:15;7.60;99.90
36416;DHT22;22447;44.530;18.620;2022-11-20T08:23:41;7.80;99.90
36416;DHT22;22447;44.530;18.620;2022-11-20T08:26:06;7.80;99.90
36416;DHT22;22447;44.530;18.620;2022-11-20T08:28:32;7.80;99.90
36416;DHT22;22447;44.530;18.620;2022-11-20T08:30:59;7.80;99.90
36416;DHT22;22447;44.530;18.620;2022-11-20T08:33:26;7.80;99.90
36416;DHT22;22447;44.530;18.620;2022-11-20T08:35:52;7.70;99.90
36416;DHT22;22447;44.530;18.620;2022-11-20T08:38:17;7.80;99.90
36416;DHT22;22447;44.530;18.620;2022-11-20T08:40:43;7.80;99.90
36416;DHT22;22447;44.530;18.620;2022-11-20T08:43:32;7.80;99.90
36416;DHT22;22447;44.530;18.620;2022-11-20T08:45:58;7.90;99.90
36416;DHT22;22447;44.530;18.620;2022-11-20T08:48:24;8.00;99.90
36416;DHT22;22447;44.530;18.620;2022-11-20T08:50:50;8.00;99.90
36416;DHT22;22447;44.530;18.620;2022-11-20T08:53:16;7.90;99.90
36416;DHT22;22447;44.530;18.620;2022-11-20T08:55:41;7.90;99.90
36416;DHT22;22447;44.530;18.620;2022-11-20T08:58:08;7.80;99.90
36416;DHT22;22447;44.530;18.620;2022-11-20T09:00:34;7.80;99.90
36416;DHT22;22447;44.530;18.620;2022-11-20T09:03:00;7.90;99.90
36416;DHT22;22447;44.530;18.620;2022-11-20T09:05:27;7.90;99.90
36416;DHT22;22447;44.530;18.620;2022-11-20T09:07:56;7.90;99.90
36416;DHT22;22447;44.530;18.620;2022-11-20T09:10:22;7.90;99.90
36416;DHT22;22447;44.530;18.620;2022-11-20T09:12:49;7.80;99.90
36416;DHT22;22447;44.530;18.620;2022-11-20T09:15:15;8.00;99.90
36416;DHT22;22447;44.530;18.620;2022-11-20T09:17:41;8.00;99.90
36416;DHT22;22447;44.530;18.620;2022-11-20T09:20:07;8.00;99.90
36416;DHT22;22447;44.530;18.620;2022-11-20T09:22:33;8.10;99.90
36416;DHT22;22447;44.530;18.620;2022-11-20T09:24:59;8.10;99.90
36416;DHT22;22447;44.530;18.620;2022-11-20T09:27:25;8.00;99.90
36416;DHT22;22447;44.530;18.620;2022-11-20T09:29:51;7.90;99.90
36416;DHT22;22447;44.530;18.620;2022-11-20T09:32:17;7.90;99.90
36416;DHT22;22447;44.530;18.620;2022-11-20T09:34:43;8.00;99.90
36416;DHT22;22447;44.530;18.620;2022-11-20T09:37:08;8.00;99.90
36416;DHT22;22447;44.530;18.620;2022-11-20T09:39:34;7.80;99.90
36416;DHT22;22447;44.530;18.620;2022-11-20T09:45:09;7.80;99.90
36416;DHT22;22447;44.530;18.620;2022-11-20T09:55:18;7.70;99.90
36416;DHT22;22447;44.530;18.620;2022-11-20T09:57:46;7.80;99.90
36416;DHT22;22447;44.530;18.620;2022-11-20T10:00:14;7.80;99.90
36416;DHT22;22447;44.530;18.620;2022-11-20T10:03:16;7.80;99.90
36416;DHT22;22447;44.530;18.620;2022-11-20T10:05:53;8.00;99.90
36416;DHT22;22447;44.530;18.620;2022-11-20T10:08:29;7.90;99.90
36416;DHT22;22447;44.530;18.620;2022-11-20T10:11:05;8.00;99.90
36416;DHT22;22447;44.530;18.620;2022-11-20T10:27:31;8.10;99.90
36416;DHT22;22447;44.530;18.620;2022-11-20T10:32:41;8.00;99.90
36416;DHT22;22447;44.530;18.620;2022-11-20T10:35:16;8.00;99.90
36416;DHT22;22447;44.530;18.620;2022-11-20T10:37:48;8.20;99.90
36416;DHT22;22447;44.530;18.620;2022-11-20T10:43:26;8.10;99.90
36416;DHT22;22447;44.530;18.620;2022-11-20T10:46:04;8.10;99.90
36416;DHT22;22447;44.530;18.620;2022-11-20T10:48:33;7.80;99.90
36416;DHT22;22447;44.530;18.620;2022-11-20T10:57:37;7.70;99.90
36416;DHT22;22447;44.530;18.620;2022-11-20T11:00:09;7.70;99.90
36416;DHT22;22447;44.530;18.620;2022-11-20T11:02:46;7.80;99.90
36416;DHT22;22447;44.530;18.620;2022-11-20T11:05:42;8.00;99.90
36416;DHT22;22447;44.530;18.620;2022-11-20T11:08:18;8.00;99.90
36416;DHT22;22447;44.530;18.620;2022-11-20T11:10:57;8.00;99.90
36416;DHT22;22447;44.530;18.620;2022-11-20T11:13:26;8.10;99.90
36416;DHT22;22447;44.530;18.620;2022-11-20T11:15:53;8.00;99.90
36416;DHT22;22447;44.530;18.620;2022-11-20T11:18:30;8.00;99.90
36416;DHT22;22447;44.530;18.620;2022-11-20T11:20:59;8.00;99.90
36416;DHT22;22447;44.530;18.620;2022-11-20T11:23:38;7.90;99.90
36416;DHT22;22447;44.530;18.620;2022-11-20T11:26:07;7.90;99.90
36416;DHT22;22447;44.530;18.620;2022-11-20T11:28:33;7.90;99.90
36416;DHT22;22447;44.530;18.620;2022-11-20T11:30:59;7.80;99.90
36416;DHT22;22447;44.530;18.620;2022-11-20T11:33:27;7.80;99.90
36416;DHT22;22447;44.530;18.620;2022-11-20T11:35:59;7.80;99.90
36416;DHT22;22447;44.530;18.620;2022-11-20T11:38:40;7.70;99.90
36416;DHT22;22447;44.530;18.620;2022-11-20T11:41:12;7.70;99.90
36416;DHT22;22447;44.530;18.620;2022-11-20T11:43:40;7.60;99.90
36416;DHT22;22447;44.530;18.620;2022-11-20T11:46:34;7.60;99.90
36416;DHT22;22447;44.530;18.620;2022-11-20T11:49:15;7.70;99.90
36416;DHT22;22447;44.530;18.620;2022-11-20T11:57:07;7.80;99.90
36416;DHT22;22447;44.530;18.620;2022-11-20T11:59:54;7.80;99.90
36416;DHT22;22447;44.530;18.620;2022-11-20T12:02:35;7.80;99.90
36416;DHT22;22447;44.530;18.620;2022-11-20T12:15:48;7.70;99.90
36416;DHT22;22447;44.530;18.620;2022-11-20T12:18:19;7.80;99.90
36416;DHT22;22447;44.530;18.620;2022-11-20T12:35:06;7.70;99.90
36416;DHT22;22447;44.530;18.620;2022-11-20T12:37:52;7.80;99.90
36416;DHT22;22447;44.530;18.620;2022-11-20T12:43:31;7.70;99.90
36416;DHT22;22447;44.530;18.620;2022-11-20T12:46:38;7.70;99.90
36416;DHT22;22447;44.530;18.620;2022-11-20T12:52:15;7.90;99.90
36416;DHT22;22447;44.530;18.620;2022-11-20T12:54:52;7.80;99.90
36416;DHT22;22447;44.530;18.620;2022-11-20T13:08:21;7.60;99.90
36416;DHT22;22447;44.530;18.620;2022-11-20T13:10:54;7.70;99.90
36416;DHT22;22447;44.530;18.620;2022-11-20T13:13:46;7.70;99.90
36416;DHT22;22447;44.530;18.620;2022-11-20T13:16:38;7.60;99.90
36416;DHT22;22447;44.530;18.620;2022-11-20T13:19:12;7.60;99.90
36416;DHT22;22447;44.530;18.620;2022-11-20T13:21:41;7.40;99.90
36416;DHT22;22447;44.530;18.620;2022-11-20T13:29:42;7.60;99.90
36416;DHT22;22447;44.530;18.620;2022-11-20T13:32:16;7.60;99.90
36416;DHT22;22447;44.530;18.620;2022-11-20T13:34:54;7.60;99.90
36416;DHT22;22447;44.530;18.620;2022-11-20T13:37:27;7.50;99.90
36416;DHT22;22447;44.530;18.620;2022-11-20T13:40:10;7.50;99.90
36416;DHT22;22447;44.530;18.620;2022-11-20T13:43:19;7.50;99.90
36416;DHT22;22447;44.530;18.620;2022-11-20T13:45:58;7.40;99.90
36416;DHT22;22447;44.530;18.620;2022-11-20T13:48:29;7.30;99.90
36416;DHT22;22447;44.530;18.620;2022-11-20T14:01:54;7.40;99.90
36416;DHT22;22447;44.530;18.620;2022-11-20T14:04:28;7.30;99.90
36416;DHT22;22447;44.530;18.620;2022-11-20T14:06:56;7.20;99.90
36416;DHT22;22447;44.530;18.620;2022-11-20T14:09:28;7.20;99.90
36416;DHT22;22447;44.530;18.620;2022-11-20T14:11:54;7.10;99.90
36416;DHT22;22447;44.530;18.620;2022-11-20T14:14:22;7.00;99.90
36416;DHT22;22447;44.530;18.620;2022-11-20T14:16:50;7.10;99.90
36416;DHT22;22447;44.530;18.620;2022-11-20T14:19:26;7.10;99.90
36416;DHT22;22447;44.530;18.620;2022-11-20T14:22:24;7.20;99.90
36416;DHT22;22447;44.530;18.620;2022-11-20T14:27:40;7.20;99.90
36416;DHT22;22447;44.530;18.620;2022-11-20T14:32:39;7.10;99.90
36416;DHT22;22447;44.530;18.620;2022-11-20T14:35:14;6.90;99.90
36416;DHT22;22447;44.530;18.620;2022-11-20T14:37:40;7.00;99.90
36416;DHT22;22447;44.530;18.620;2022-11-20T14:40:29;7.00;99.90
36416;DHT22;22447;44.530;18.620;2022-11-20T14:42:56;6.90;99.90
36416;DHT22;22447;44.530;18.620;2022-11-20T14:45:23;6.90;99.90
36416;DHT22;22447;44.530;18.620;2022-11-20T14:47:51;7.00;99.90
36416;DHT22;22447;44.530;18.620;2022-11-20T14:50:24;7.00;99.90
36416;DHT22;22447;44.530;18.620;2022-11-20T14:52:55;6.90;99.90
36416;DHT22;22447;44.530;18.620;2022-11-20T14:55:30;6.80;99.90
36416;DHT22;22447;44.530;18.620;2022-11-20T14:58:03;6.80;99.90
36416;DHT22;22447;44.530;18.620;2022-11-20T15:00:31;6.80;99.90
36416;DHT22;22447;44.530;18.620;2022-11-20T15:02:57;6.80;99.90
36416;DHT22;22447;44.530;18.620;2022-11-20T15:05:26;6.80;99.90
36416;DHT22;22447;44.530;18.620;2022-11-20T15:08:09;6.80;99.90
36416;DHT22;22447;44.530;18.620;2022-11-20T15:10:36;6.80;99.90
36416;DHT22;22447;44.530;18.620;2022-11-20T15:13:12;7.00;99.90
36416;DHT22;22447;44.530;18.620;2022-11-20T15:18:14;6.90;99.90
36416;DHT22;22447;44.530;18.620;2022-11-20T15:20:41;6.80;99.90
36416;DHT22;22447;44.530;18.620;2022-11-20T15:23:12;6.80;99.90
36416;DHT22;22447;44.530;18.620;2022-11-20T15:25:39;6.70;99.90
36416;DHT22;22447;44.530;18.620;2022-11-20T15:28:13;6.90;99.90
36416;DHT22;22447;44.530;18.620;2022-11-20T15:30:41;6.80;99.90
36416;DHT22;22447;44.530;18.620;2022-11-20T15:33:08;6.90;99.90
36416;DHT22;22447;44.530;18.620;2022-11-20T15:35:34;6.80;99.90
36416;DHT22;22447;44.530;18.620;2022-11-20T15:38:00;6.80;99.90
36416;DHT22;22447;44.530;18.620;2022-11-20T15:40:26;6.80;99.90
36416;DHT22;22447;44.530;18.620;2022-11-20T15:42:52;6.80;99.90
36416;DHT22;22447;44.530;18.620;2022-11-20T15:45:40;6.80;99.90
36416;DHT22;22447;44.530;18.620;2022-11-20T15:48:52;6.90;99.90
36416;DHT22;22447;44.530;18.620;2022-11-20T15:53:54;7.00;99.90
36416;DHT22;22447;44.530;18.620;2022-11-20T15:56:21;7.00;99.90
36416;DHT22;22447;44.530;18.620;2022-11-20T15:58:47;6.90;99.90
36416;DHT22;22447;44.530;18.620;2022-11-20T16:01:18;6.70;99.90
36416;DHT22;22447;44.530;18.620;2022-11-20T16:03:45;6.70;99.90
36416;DHT22;22447;44.530;18.620;2022-11-20T16:06:11;6.70;99.90
36416;DHT22;22447;44.530;18.620;2022-11-20T16:08:37;6.60;99.90
36416;DHT22;22447;44.530;18.620;2022-11-20T16:11:03;6.70;99.90
36416;DHT22;22447;44.530;18.620;2022-11-20T16:13:31;6.60;99.90
36416;DHT22;22447;44.530;18.620;2022-11-20T16:16:23;6.70;99.90
36416;DHT22;22447;44.530;18.620;2022-11-20T16:18:51;6.70;99.90
36416;DHT22;22447;44.530;18.620;2022-11-20T16:21:17;6.70;99.90
36416;DHT22;22447;44.530;18.620;2022-11-20T16:23:43;6.70;99.90
36416;DHT22;22447;44.530;18.620;2022-11-20T16:26:13;6.80;99.90
36416;DHT22;22447;44.530;18.620;2022-11-20T16:28:40;6.80;99.90
36416;DHT22;22447;44.530;18.620;2022-11-20T16:33:35;6.80;99.90
36416;DHT22;22447;44.530;18.620;2022-11-20T16:36:12;6.80;99.90
36416;DHT22;22447;44.530;18.620;2022-11-20T16:38:39;6.90;99.90
36416;DHT22;22447;44.530;18.620;2022-11-20T16:41:05;6.90;99.90
36416;DHT22;22447;44.530;18.620;2022-11-20T16:43:32;6.80;99.90
36416;DHT22;22447;44.530;18.620;2022-11-20T16:45:57;6.80;99.90
36416;DHT22;22447;44.530;18.620;2022-11-20T16:48:23;6.70;99.90
36416;DHT22;22447;44.530;18.620;2022-11-20T16:50:51;6.70;99.90
36416;DHT22;22447;44.530;18.620;2022-11-20T16:53:19;6.70;99.90
36416;DHT22;22447;44.530;18.620;2022-11-20T16:55:46;6.80;99.90
36416;DHT22;22447;44.530;18.620;2022-11-20T16:58:12;6.80;99.90
36416;DHT22;22447;44.530;18.620;2022-11-20T17:00:39;6.90;99.90
36416;DHT22;22447;44.530;18.620;2022-11-20T17:03:10;6.80;99.90
36416;DHT22;22447;44.530;18.620;2022-11-20T17:05:36;6.80;99.90
36416;DHT22;22447;44.530;18.620;2022-11-20T17:08:02;6.80;99.90
36416;DHT22;22447;44.530;18.620;2022-11-20T17:10:28;6.70;99.90
36416;DHT22;22447;44.530;18.620;2022-11-20T17:12:54;6.70;99.90
36416;DHT22;22447;44.530;18.620;2022-11-20T17:15:20;6.70;99.90
36416;DHT22;22447;44.530;18.620;2022-11-20T17:17:46;6.70;99.90
36416;DHT22;22447;44.530;18.620;2022-11-20T17:20:12;6.70;99.90
36416;DHT22;22447;44.530;18.620;2022-11-20T17:22:38;6.80;99.90
36416;DHT22;22447;44.530;18.620;2022-11-20T17:25:04;6.70;99.90
36416;DHT22;22447;44.530;18.620;2022-11-20T17:27:30;6.70;99.90
36416;DHT22;22447;44.530;18.620;2022-11-20T17:29:56;6.70;99.90
36416;DHT22;22447;44.530;18.620;2022-11-20T17:32:23;6.70;99.90
36416;DHT22;22447;44.530;18.620;2022-11-20T17:34:49;6.80;99.90
36416;DHT22;22447;44.530;18.620;2022-11-20T17:37:15;6.90;99.90
36416;DHT22;22447;44.530;18.620;2022-11-20T17:39:41;6.80;99.90
36416;DHT22;22447;44.530;18.620;2022-11-20T17:42:07;6.90;99.90
36416;DHT22;22447;44.530;18.620;2022-11-20T17:44:51;6.90;99.90
36416;DHT22;22447;44.530;18.620;2022-11-20T17:47:17;6.80;99.90
36416;DHT22;22447;44.530;18.620;2022-11-20T17:49:43;6.90;99.90